sensor_id;sensor_type;location;lat;lon;timestamp;pressure;altitude;pressure_sealevel;temperature;humidity
44027;BME280;29696;55.698;37.460;2022-12-29T00:00:06;99285.50;;;0.15;83.20
44027;BME280;29696;55.698;37.460;2022-12-29T00:02:38;99281.41;;;0.11;83.04
44027;BME280;29696;55.698;37.460;2022-12-29T00:05:05;99276.44;;;0.06;82.68
44027;BME280;29696;55.698;37.460;2022-12-29T00:07:31;99279.94;;;0.05;82.61
44027;BME280;29696;55.698;37.460;2022-12-29T00:09:57;99286.06;;;0.04;82.44
44027;BME280;29696;55.698;37.460;2022-12-29T00:12:23;99277.59;;;0.01;82.27
44027;BME280;29696;55.698;37.460;2022-12-29T00:14:49;99283.69;;;-0.01;81.96
44027;BME280;29696;55.698;37.460;2022-12-29T00:17:33;99279.47;;;-0.03;81.96
44027;BME280;29696;55.698;37.460;2022-12-29T00:19:59;99286.44;;;-0.04;81.82
44027;BME280;29696;55.698;37.460;2022-12-29T00:22:44;99290.00;;;-0.06;81.74
44027;BME280;29696;55.698;37.460;2022-12-29T00:25:28;99285.84;;;-0.09;81.58
44027;BME280;29696;55.698;37.460;2022-12-29T00:28:13;99293.84;;;-0.13;80.94
44027;BME280;29696;55.698;37.460;2022-12-29T00:31:00;99298.34;;;-0.17;80.93
44027;BME280;29696;55.698;37.460;2022-12-29T00:33:45;99293.16;;;-0.17;80.83
44027;BME280;29696;55.698;37.460;2022-12-29T00:36:36;99298.50;;;-0.20;80.77
44027;BME280;29696;55.698;37.460;2022-12-29T00:39:06;99305.53;;;-0.22;80.55
44027;BME280;29696;55.698;37.460;2022-12-29T00:41:52;99300.41;;;-0.24;80.25
44027;BME280;29696;55.698;37.460;2022-12-29T00:44:36;99301.31;;;-0.25;80.57
44027;BME280;29696;55.698;37.460;2022-12-29T00:47:02;99297.81;;;-0.24;80.43
44027;BME280;29696;55.698;37.460;2022-12-29T00:49:31;99307.28;;;-0.22;80.31
44027;BME280;29696;55.698;37.460;2022-12-29T00:54:47;99316.97;;;-0.26;79.82
44027;BME280;29696;55.698;37.460;2022-12-29T00:57:13;99316.19;;;-0.28;79.73
44027;BME280;29696;55.698;37.460;2022-12-29T00:59:40;99315.28;;;-0.27;80.01
44027;BME280;29696;55.698;37.460;2022-12-29T01:02:06;99310.94;;;-0.27;79.87
44027;BME280;29696;55.698;37.460;2022-12-29T01:04:33;99315.28;;;-0.27;79.64
44027;BME280;29696;55.698;37.460;2022-12-29T01:06:59;99314.44;;;-0.28;79.68
44027;BME280;29696;55.698;37.460;2022-12-29T01:09:25;99316.06;;;-0.25;79.64
44027;BME280;29696;55.698;37.460;2022-12-29T01:12:10;99306.50;;;-0.25;79.70
44027;BME280;29696;55.698;37.460;2022-12-29T01:14:36;99311.63;;;-0.23;79.44
44027;BME280;29696;55.698;37.460;2022-12-29T01:17:03;99310.72;;;-0.22;79.58
44027;BME280;29696;55.698;37.460;2022-12-29T01:19:29;99319.34;;;-0.21;79.73
44027;BME280;29696;55.698;37.460;2022-12-29T01:21:55;99321.09;;;-0.22;79.49
44027;BME280;29696;55.698;37.460;2022-12-29T01:24:22;99323.84;;;-0.25;79.09
44027;BME280;29696;55.698;37.460;2022-12-29T01:26:48;99312.78;;;-0.29;78.93
44027;BME280;29696;55.698;37.460;2022-12-29T01:29:16;99314.00;;;-0.36;78.21
44027;BME280;29696;55.698;37.460;2022-12-29T01:31:44;99328.00;;;-0.40;78.14
44027;BME280;29696;55.698;37.460;2022-12-29T01:34:11;99320.47;;;-0.44;78.11
44027;BME280;29696;55.698;37.460;2022-12-29T01:36:37;99323.25;;;-0.49;78.03
44027;BME280;29696;55.698;37.460;2022-12-29T01:39:03;99330.25;;;-0.51;78.05
44027;BME280;29696;55.698;37.460;2022-12-29T01:41:29;99332.09;;;-0.53;78.00
44027;BME280;29696;55.698;37.460;2022-12-29T01:43:57;99324.47;;;-0.56;77.87
44027;BME280;29696;55.698;37.460;2022-12-29T01:46:30;99323.78;;;-0.60;77.88
44027;BME280;29696;55.698;37.460;2022-12-29T01:48:59;99324.75;;;-0.62;77.94
44027;BME280;29696;55.698;37.460;2022-12-29T01:51:28;99333.38;;;-0.62;77.82
44027;BME280;29696;55.698;37.460;2022-12-29T01:53:56;99337.59;;;-0.59;78.06
44027;BME280;29696;55.698;37.460;2022-12-29T01:56:24;99330.63;;;-0.59;78.16
44027;BME280;29696;55.698;37.460;2022-12-29T01:58:52;99322.00;;;-0.59;78.26
44027;BME280;29696;55.698;37.460;2022-12-29T02:01:20;99334.25;;;-0.63;77.93
44027;BME280;29696;55.698;37.460;2022-12-29T02:03:47;99334.41;;;-0.66;78.03
44027;BME280;29696;55.698;37.460;2022-12-29T02:06:15;99340.59;;;-0.68;78.03
44027;BME280;29696;55.698;37.460;2022-12-29T02:08:44;99335.56;;;-0.72;77.97
44027;BME280;29696;55.698;37.460;2022-12-29T02:11:11;99341.59;;;-0.71;77.99
44027;BME280;29696;55.698;37.460;2022-12-29T02:13:38;99331.25;;;-0.73;77.95
44027;BME280;29696;55.698;37.460;2022-12-29T02:28:15;99352.03;;;-0.92;77.65
44027;BME280;29696;55.698;37.460;2022-12-29T02:30:32;99352.16;;;-0.95;77.59
44027;BME280;29696;55.698;37.460;2022-12-29T02:33:13;99343.72;;;-1.00;77.77
44027;BME280;29696;55.698;37.460;2022-12-29T02:52:34;99346.97;;;-1.13;78.32
44027;BME280;29696;55.698;37.460;2022-12-29T02:55:22;99355.56;;;-1.13;78.48
44027;BME280;29696;55.698;37.460;2022-12-29T02:57:49;99361.72;;;-1.16;78.26
44027;BME280;29696;55.698;37.460;2022-12-29T03:00:30;99355.97;;;-1.22;78.23
44027;BME280;29696;55.698;37.460;2022-12-29T03:08:44;99361.56;;;-1.31;78.33
44027;BME280;29696;55.698;37.460;2022-12-29T03:11:14;99354.63;;;-1.31;78.40
44027;BME280;29696;55.698;37.460;2022-12-29T03:14:05;99368.28;;;-1.27;78.46
44027;BME280;29696;55.698;37.460;2022-12-29T03:16:58;99361.28;;;-1.25;78.64
44027;BME280;29696;55.698;37.460;2022-12-29T03:19:33;99367.31;;;-1.25;78.74
44027;BME280;29696;55.698;37.460;2022-12-29T03:22:05;99375.09;;;-1.25;78.95
44027;BME280;29696;55.698;37.460;2022-12-29T03:28:03;99373.47;;;-1.27;78.93
44027;BME280;29696;55.698;37.460;2022-12-29T03:30:37;99374.25;;;-1.25;78.95
44027;BME280;29696;55.698;37.460;2022-12-29T03:33:07;99377.75;;;-1.26;78.97
44027;BME280;29696;55.698;37.460;2022-12-29T03:35:35;99382.03;;;-1.25;79.06
44027;BME280;29696;55.698;37.460;2022-12-29T03:40:55;99386.88;;;-1.18;79.22
44027;BME280;29696;55.698;37.460;2022-12-29T03:43:24;99388.59;;;-1.17;79.24
44027;BME280;29696;55.698;37.460;2022-12-29T03:45:50;99397.19;;;-1.16;79.20
44027;BME280;29696;55.698;37.460;2022-12-29T03:48:17;99398.03;;;-1.16;79.09
44027;BME280;29696;55.698;37.460;2022-12-29T03:50:44;99393.91;;;-1.20;79.06
44027;BME280;29696;55.698;37.460;2022-12-29T03:53:10;99397.47;;;-1.22;78.81
44027;BME280;29696;55.698;37.460;2022-12-29T03:55:38;99404.50;;;-1.26;78.88
44027;BME280;29696;55.698;37.460;2022-12-29T03:58:04;99396.84;;;-1.29;78.76
44027;BME280;29696;55.698;37.460;2022-12-29T04:00:46;99402.16;;;-1.32;78.76
44027;BME280;29696;55.698;37.460;2022-12-29T04:03:12;99406.50;;;-1.32;78.85
44027;BME280;29696;55.698;37.460;2022-12-29T04:05:39;99411.78;;;-1.34;79.06
44027;BME280;29696;55.698;37.460;2022-12-29T04:08:05;99409.25;;;-1.35;78.93
44027;BME280;29696;55.698;37.460;2022-12-29T04:10:32;99410.16;;;-1.36;78.75
44027;BME280;29696;55.698;37.460;2022-12-29T04:13:01;99414.50;;;-1.37;78.91
44027;BME280;29696;55.698;37.460;2022-12-29T04:15:27;99413.66;;;-1.38;78.93
44027;BME280;29696;55.698;37.460;2022-12-29T04:17:53;99417.97;;;-1.38;79.04
44027;BME280;29696;55.698;37.460;2022-12-29T04:20:19;99412.88;;;-1.40;78.99
44027;BME280;29696;55.698;37.460;2022-12-29T04:23:06;99410.28;;;-1.40;78.97
44027;BME280;29696;55.698;37.460;2022-12-29T04:25:34;99405.22;;;-1.43;78.89
44027;BME280;29696;55.698;37.460;2022-12-29T04:28:00;99408.84;;;-1.47;79.07
44027;BME280;29696;55.698;37.460;2022-12-29T04:30:45;99418.38;;;-1.47;79.01
44027;BME280;29696;55.698;37.460;2022-12-29T04:33:34;99417.66;;;-1.51;78.93
44027;BME280;29696;55.698;37.460;2022-12-29T04:36:01;99410.09;;;-1.55;78.85
44027;BME280;29696;55.698;37.460;2022-12-29T04:38:27;99409.31;;;-1.57;78.75
44027;BME280;29696;55.698;37.460;2022-12-29T04:40:54;99418.00;;;-1.58;78.86
44027;BME280;29696;55.698;37.460;2022-12-29T04:43:22;99420.63;;;-1.60;78.97
44027;BME280;29696;55.698;37.460;2022-12-29T04:46:15;99425.09;;;-1.64;78.84
44027;BME280;29696;55.698;37.460;2022-12-29T04:48:47;99429.44;;;-1.64;78.84
44027;BME280;29696;55.698;37.460;2022-12-29T04:51:38;99432.28;;;-1.70;78.93
44027;BME280;29696;55.698;37.460;2022-12-29T04:54:07;99432.28;;;-1.70;78.91
44027;BME280;29696;55.698;37.460;2022-12-29T04:56:33;99426.25;;;-1.71;78.80
44027;BME280;29696;55.698;37.460;2022-12-29T04:58:59;99427.16;;;-1.72;78.83
44027;BME280;29696;55.698;37.460;2022-12-29T05:01:26;99438.47;;;-1.74;78.83
44027;BME280;29696;55.698;37.460;2022-12-29T05:03:53;99438.56;;;-1.76;78.92
44027;BME280;29696;55.698;37.460;2022-12-29T05:06:19;99439.44;;;-1.77;78.87
44027;BME280;29696;55.698;37.460;2022-12-29T05:08:45;99436.94;;;-1.78;78.82
44027;BME280;29696;55.698;37.460;2022-12-29T05:11:11;99444.75;;;-1.80;78.91
44027;BME280;29696;55.698;37.460;2022-12-29T05:13:38;99439.56;;;-1.80;78.73
44027;BME280;29696;55.698;37.460;2022-12-29T05:16:04;99442.94;;;-1.78;78.86
44027;BME280;29696;55.698;37.460;2022-12-29T05:18:30;99449.88;;;-1.78;78.87
44027;BME280;29696;55.698;37.460;2022-12-29T05:20:58;99454.16;;;-1.77;78.96
44027;BME280;29696;55.698;37.460;2022-12-29T05:23:24;99453.25;;;-1.76;78.77
44027;BME280;29696;55.698;37.460;2022-12-29T05:25:56;99447.09;;;-1.74;78.97
44027;BME280;29696;55.698;37.460;2022-12-29T05:28:42;99457.41;;;-1.72;78.94
44027;BME280;29696;55.698;37.460;2022-12-29T05:31:14;99457.41;;;-1.72;79.02
44027;BME280;29696;55.698;37.460;2022-12-29T05:33:42;99465.09;;;-1.71;78.89
44027;BME280;29696;55.698;37.460;2022-12-29T05:36:09;99465.06;;;-1.69;79.02
44027;BME280;29696;55.698;37.460;2022-12-29T05:38:38;99459.75;;;-1.66;78.88
44027;BME280;29696;55.698;37.460;2022-12-29T05:41:04;99461.50;;;-1.67;79.02
44027;BME280;29696;55.698;37.460;2022-12-29T05:43:57;99463.25;;;-1.67;78.90
44027;BME280;29696;55.698;37.460;2022-12-29T05:46:49;99458.13;;;-1.69;78.93
44027;BME280;29696;55.698;37.460;2022-12-29T05:49:35;99461.50;;;-1.67;78.90
44027;BME280;29696;55.698;37.460;2022-12-29T05:52:08;99466.59;;;-1.65;78.92
44027;BME280;29696;55.698;37.460;2022-12-29T05:54:34;99463.13;;;-1.64;78.89
44027;BME280;29696;55.698;37.460;2022-12-29T05:57:02;99464.84;;;-1.65;78.82
44027;BME280;29696;55.698;37.460;2022-12-29T05:59:29;99462.22;;;-1.63;78.77
44027;BME280;29696;55.698;37.460;2022-12-29T06:01:56;99463.06;;;-1.63;78.81
44027;BME280;29696;55.698;37.460;2022-12-29T06:04:22;99456.91;;;-1.60;78.74
44027;BME280;29696;55.698;37.460;2022-12-29T06:06:48;99462.09;;;-1.60;78.83
44027;BME280;29696;55.698;37.460;2022-12-29T06:09:23;99462.09;;;-1.60;78.76
44027;BME280;29696;55.698;37.460;2022-12-29T06:11:50;99470.78;;;-1.61;78.71
44027;BME280;29696;55.698;37.460;2022-12-29T06:14:16;99467.28;;;-1.60;78.71
44027;BME280;29696;55.698;37.460;2022-12-29T06:16:42;99468.06;;;-1.58;78.63
44027;BME280;29696;55.698;37.460;2022-12-29T06:19:11;99472.41;;;-1.58;78.72
44027;BME280;29696;55.698;37.460;2022-12-29T06:21:37;99468.06;;;-1.58;78.46
44027;BME280;29696;55.698;37.460;2022-12-29T06:24:04;99470.66;;;-1.58;78.64
44027;BME280;29696;55.698;37.460;2022-12-29T06:26:30;99471.50;;;-1.57;78.64
44027;BME280;29696;55.698;37.460;2022-12-29T06:28:57;99479.25;;;-1.57;78.56
44027;BME280;29696;55.698;37.460;2022-12-29T06:31:23;99481.78;;;-1.56;78.41
44027;BME280;29696;55.698;37.460;2022-12-29T06:33:49;99485.03;;;-1.51;78.49
44027;BME280;29696;55.698;37.460;2022-12-29T06:36:15;99485.84;;;-1.49;78.45
44027;BME280;29696;55.698;37.460;2022-12-29T06:38:41;99486.53;;;-1.45;78.66
44027;BME280;29696;55.698;37.460;2022-12-29T06:41:07;99482.19;;;-1.45;78.60
44027;BME280;29696;55.698;37.460;2022-12-29T06:43:51;99484.75;;;-1.43;78.37
44027;BME280;29696;55.698;37.460;2022-12-29T06:46:49;99478.75;;;-1.45;78.34
44027;BME280;29696;55.698;37.460;2022-12-29T06:49:15;99473.63;;;-1.47;78.09
44027;BME280;29696;55.698;37.460;2022-12-29T06:51:41;99470.31;;;-1.50;77.98
44027;BME280;29696;55.698;37.460;2022-12-29T06:54:07;99476.44;;;-1.51;78.01
44027;BME280;29696;55.698;37.460;2022-12-29T06:56:34;99484.06;;;-1.48;77.88
44027;BME280;29696;55.698;37.460;2022-12-29T06:59:00;99486.53;;;-1.45;78.01
44027;BME280;29696;55.698;37.460;2022-12-29T07:01:26;99481.94;;;-1.39;78.15
44027;BME280;29696;55.698;37.460;2022-12-29T07:03:52;99486.13;;;-1.34;78.15
44027;BME280;29696;55.698;37.460;2022-12-29T07:06:18;99484.94;;;-1.27;78.26
44027;BME280;29696;55.698;37.460;2022-12-29T07:08:44;99490.66;;;-1.19;78.25
44027;BME280;29696;55.698;37.460;2022-12-29T07:11:10;99492.16;;;-1.13;78.21
44027;BME280;29696;55.698;37.460;2022-12-29T07:13:37;99496.34;;;-1.11;78.48
44027;BME280;29696;55.698;37.460;2022-12-29T07:16:06;99491.50;;;-1.19;78.35
44027;BME280;29696;55.698;37.460;2022-12-29T07:18:32;99496.88;;;-1.23;78.20
44027;BME280;29696;55.698;37.460;2022-12-29T07:20:58;99489.88;;;-1.21;78.19
44027;BME280;29696;55.698;37.460;2022-12-29T07:23:25;99498.56;;;-1.22;78.35
44027;BME280;29696;55.698;37.460;2022-12-29T07:25:58;99492.66;;;-1.26;78.02
44027;BME280;29696;55.698;37.460;2022-12-29T07:28:24;99493.78;;;-1.31;77.32
44027;BME280;29696;55.698;37.460;2022-12-29T07:30:50;99491.31;;;-1.34;77.13
44027;BME280;29696;55.698;37.460;2022-12-29T07:33:16;99493.28;;;-1.41;76.88
44027;BME280;29696;55.698;37.460;2022-12-29T07:35:42;99484.78;;;-1.45;76.72
44027;BME280;29696;55.698;37.460;2022-12-29T07:38:08;99488.28;;;-1.46;76.80
44027;BME280;29696;55.698;37.460;2022-12-29T07:40:34;99491.66;;;-1.44;76.85
44027;BME280;29696;55.698;37.460;2022-12-29T07:43:00;99488.59;;;-1.31;76.91
44027;BME280;29696;55.698;37.460;2022-12-29T07:45:35;99495.84;;;-1.19;77.04
44027;BME280;29696;55.698;37.460;2022-12-29T07:48:07;99502.28;;;-1.07;77.29
44027;BME280;29696;55.698;37.460;2022-12-29T07:50:34;99502.41;;;-1.10;77.20
44027;BME280;29696;55.698;37.460;2022-12-29T07:53:00;99488.44;;;-1.08;77.04
44027;BME280;29696;55.698;37.460;2022-12-29T07:55:26;99502.72;;;-0.98;77.13
44027;BME280;29696;55.698;37.460;2022-12-29T07:57:53;99503.03;;;-0.85;76.78
44027;BME280;29696;55.698;37.460;2022-12-29T08:00:19;99503.69;;;-0.80;76.70
44027;BME280;29696;55.698;37.460;2022-12-29T08:02:45;99510.03;;;-0.66;76.70
44027;BME280;29696;55.698;37.460;2022-12-29T08:05:11;99516.31;;;-0.52;76.54
44027;BME280;29696;55.698;37.460;2022-12-29T08:07:37;99520.81;;;-0.36;76.54
44027;BME280;29696;55.698;37.460;2022-12-29T08:10:03;99520.28;;;-0.24;76.51
44027;BME280;29696;55.698;37.460;2022-12-29T08:12:30;99517.34;;;-0.16;76.42
44027;BME280;29696;55.698;37.460;2022-12-29T08:14:56;99517.91;;;-0.10;76.29
44027;BME280;29696;55.698;37.460;2022-12-29T08:17:22;99522.19;;;-0.09;75.96
44027;BME280;29696;55.698;37.460;2022-12-29T08:19:48;99519.47;;;-0.06;75.85
44027;BME280;29696;55.698;37.460;2022-12-29T08:22:14;99527.97;;;-0.02;75.13
44027;BME280;29696;55.698;37.460;2022-12-29T08:24:40;99515.66;;;0.02;74.72
44027;BME280;29696;55.698;37.460;2022-12-29T08:27:06;99524.09;;;0.07;74.30
44027;BME280;29696;55.698;37.460;2022-12-29T08:29:32;99526.59;;;0.08;73.83
44027;BME280;29696;55.698;37.460;2022-12-29T08:31:58;99523.81;;;0.13;73.74
44027;BME280;29696;55.698;37.460;2022-12-29T08:34:24;99527.81;;;0.20;73.42
44027;BME280;29696;55.698;37.460;2022-12-29T08:36:50;99518.88;;;0.26;73.46
44027;BME280;29696;55.698;37.460;2022-12-29T08:39:16;99516.91;;;0.31;73.43
44027;BME280;29696;55.698;37.460;2022-12-29T08:41:42;99524.56;;;0.34;73.34
44027;BME280;29696;55.698;37.460;2022-12-29T08:44:08;99523.28;;;0.42;73.25
44027;BME280;29696;55.698;37.460;2022-12-29T08:46:34;99515.94;;;0.51;73.24
44027;BME280;29696;55.698;37.460;2022-12-29T08:49:00;99521.47;;;0.62;73.08
44027;BME280;29696;55.698;37.460;2022-12-29T08:51:26;99514.00;;;0.73;73.17
44027;BME280;29696;55.698;37.460;2022-12-29T08:53:52;99523.19;;;0.80;72.83
44027;BME280;29696;55.698;37.460;2022-12-29T08:56:19;99514.31;;;0.84;72.32
44027;BME280;29696;55.698;37.460;2022-12-29T08:58:50;99520.22;;;0.88;71.61
44027;BME280;29696;55.698;37.460;2022-12-29T09:01:18;99518.75;;;0.82;70.75
44027;BME280;29696;55.698;37.460;2022-12-29T09:03:44;99514.63;;;0.78;70.28
44027;BME280;29696;55.698;37.460;2022-12-29T09:06:10;99509.72;;;0.72;70.88
44027;BME280;29696;55.698;37.460;2022-12-29T09:08:36;99514.31;;;0.67;70.39
44027;BME280;29696;55.698;37.460;2022-12-29T09:11:10;99517.75;;;0.67;70.24
44027;BME280;29696;55.698;37.460;2022-12-29T09:13:36;99510.41;;;0.76;70.60
44027;BME280;29696;55.698;37.460;2022-12-29T09:16:02;99510.59;;;0.90;70.64
44027;BME280;29696;55.698;37.460;2022-12-29T09:18:29;99512.63;;;1.01;70.70
44027;BME280;29696;55.698;37.460;2022-12-29T09:20:55;99516.47;;;1.11;70.88
44027;BME280;29696;55.698;37.460;2022-12-29T09:23:22;99507.50;;;1.17;70.88
44027;BME280;29696;55.698;37.460;2022-12-29T09:25:48;99513.25;;;1.23;70.83
44027;BME280;29696;55.698;37.460;2022-12-29T09:28:13;99507.88;;;1.26;71.75
44027;BME280;29696;55.698;37.460;2022-12-29T09:30:41;99508.13;;;1.04;71.20
44027;BME280;29696;55.698;37.460;2022-12-29T09:33:07;99513.88;;;0.94;70.55
44027;BME280;29696;55.698;37.460;2022-12-29T09:35:33;99514.09;;;0.89;70.12
44027;BME280;29696;55.698;37.460;2022-12-29T09:37:59;99510.25;;;0.79;69.70
44027;BME280;29696;55.698;37.460;2022-12-29T09:40:31;99515.00;;;0.71;69.53
44027;BME280;29696;55.698;37.460;2022-12-29T09:45:45;99523.00;;;0.49;69.40
44027;BME280;29696;55.698;37.460;2022-12-29T09:48:20;99518.94;;;0.43;69.64
44027;BME280;29696;55.698;37.460;2022-12-29T09:50:48;99520.97;;;0.36;69.78
44027;BME280;29696;55.698;37.460;2022-12-29T09:53:49;99524.91;;;0.26;69.18
44027;BME280;29696;55.698;37.460;2022-12-29T09:56:16;99516.03;;;0.13;69.19
44027;BME280;29696;55.698;37.460;2022-12-29T09:59:00;99521.56;;;0.05;69.48
44027;BME280;29696;55.698;37.460;2022-12-29T10:01:49;99522.69;;;-0.01;69.69
44027;BME280;29696;55.698;37.460;2022-12-29T10:04:17;99507.16;;;-0.02;70.28
44027;BME280;29696;55.698;37.460;2022-12-29T10:06:51;99515.09;;;-0.05;70.32
44027;BME280;29696;55.698;37.460;2022-12-29T10:15:10;99503.09;;;-0.08;71.34
44027;BME280;29696;55.698;37.460;2022-12-29T10:20:33;99509.69;;;-0.19;71.45
44027;BME280;29696;55.698;37.460;2022-12-29T10:25:50;99506.97;;;-0.16;71.83
44027;BME280;29696;55.698;37.460;2022-12-29T10:28:22;99510.38;;;-0.16;71.97
44027;BME280;29696;55.698;37.460;2022-12-29T10:30:48;99512.94;;;-0.14;72.15
44027;BME280;29696;55.698;37.460;2022-12-29T10:33:17;99513.53;;;-0.09;72.42
44027;BME280;29696;55.698;37.460;2022-12-29T10:35:44;99516.88;;;-0.06;72.36
44027;BME280;29696;55.698;37.460;2022-12-29T10:40:58;99514.94;;;-0.21;71.70
44027;BME280;29696;55.698;37.460;2022-12-29T10:43:30;99515.81;;;-0.20;72.00
44027;BME280;29696;55.698;37.460;2022-12-29T10:45:58;99514.75;;;-0.16;72.33
44027;BME280;29696;55.698;37.460;2022-12-29T10:48:26;99511.94;;;-0.12;72.46
44027;BME280;29696;55.698;37.460;2022-12-29T10:50:55;99513.78;;;-0.14;72.37
44027;BME280;29696;55.698;37.460;2022-12-29T10:53:23;99515.66;;;-0.17;72.21
44027;BME280;29696;55.698;37.460;2022-12-29T10:55:50;99509.75;;;-0.21;71.91
44027;BME280;29696;55.698;37.460;2022-12-29T10:58:17;99491.78;;;-0.26;71.94
44027;BME280;29696;55.698;37.460;2022-12-29T11:00:48;99498.94;;;-0.31;71.92
44027;BME280;29696;55.698;37.460;2022-12-29T11:09:13;99490.06;;;-0.46;71.91
44027;BME280;29696;55.698;37.460;2022-12-29T11:11:40;99489.19;;;-0.44;72.39
44027;BME280;29696;55.698;37.460;2022-12-29T11:14:13;99481.19;;;-0.40;72.42
44027;BME280;29696;55.698;37.460;2022-12-29T11:16:40;99487.66;;;-0.30;72.90
44027;BME280;29696;55.698;37.460;2022-12-29T11:19:23;99484.78;;;-0.24;72.86
44027;BME280;29696;55.698;37.460;2022-12-29T11:21:50;99486.47;;;-0.22;72.99
44027;BME280;29696;55.698;37.460;2022-12-29T11:27:13;99482.66;;;-0.34;72.31
44027;BME280;29696;55.698;37.460;2022-12-29T11:29:40;99483.91;;;-0.43;72.00
44027;BME280;29696;55.698;37.460;2022-12-29T11:32:11;99479.69;;;-0.46;72.47
44027;BME280;29696;55.698;37.460;2022-12-29T11:34:37;99483.78;;;-0.40;72.75
44027;BME280;29696;55.698;37.460;2022-12-29T11:37:04;99484.34;;;-0.33;73.07
44027;BME280;29696;55.698;37.460;2022-12-29T11:39:33;99489.38;;;-0.30;73.32
44027;BME280;29696;55.698;37.460;2022-12-29T11:42:00;99483.31;;;-0.29;73.26
44027;BME280;29696;55.698;37.460;2022-12-29T11:44:28;99486.59;;;-0.26;73.51
44027;BME280;29696;55.698;37.460;2022-12-29T11:46:56;99483.03;;;-0.23;73.62
44027;BME280;29696;55.698;37.460;2022-12-29T11:49:23;99498.47;;;-0.20;73.61
44027;BME280;29696;55.698;37.460;2022-12-29T11:51:51;99491.31;;;-0.15;74.08
44027;BME280;29696;55.698;37.460;2022-12-29T11:54:25;99499.25;;;-0.18;74.12
44027;BME280;29696;55.698;37.460;2022-12-29T11:56:52;99495.88;;;-0.20;74.06
44027;BME280;29696;55.698;37.460;2022-12-29T12:05:08;99504.63;;;-0.04;74.60
44027;BME280;29696;55.698;37.460;2022-12-29T12:07:40;99511.31;;;0.02;74.67
44027;BME280;29696;55.698;37.460;2022-12-29T12:10:10;99514.81;;;0.01;74.66
44027;BME280;29696;55.698;37.460;2022-12-29T12:12:44;99516.59;;;0.01;74.64
44027;BME280;29696;55.698;37.460;2022-12-29T12:15:15;99516.44;;;0.04;74.69
44027;BME280;29696;55.698;37.460;2022-12-29T12:17:53;99513.69;;;0.07;74.83
44027;BME280;29696;55.698;37.460;2022-12-29T12:20:22;99513.84;;;0.04;74.58
44027;BME280;29696;55.698;37.460;2022-12-29T12:22:58;99512.78;;;0.08;74.82
44027;BME280;29696;55.698;37.460;2022-12-29T12:25:30;99512.72;;;0.09;75.05
44027;BME280;29696;55.698;37.460;2022-12-29T12:30:44;99515.03;;;-0.04;74.82
44027;BME280;29696;55.698;37.460;2022-12-29T12:33:16;99510.94;;;-0.09;74.83
44027;BME280;29696;55.698;37.460;2022-12-29T12:35:47;99511.88;;;-0.10;74.95
44027;BME280;29696;55.698;37.460;2022-12-29T12:41:25;99506.75;;;-0.12;74.79
44027;BME280;29696;55.698;37.460;2022-12-29T12:44:01;99500.78;;;-0.14;74.85
44027;BME280;29696;55.698;37.460;2022-12-29T12:46:35;99505.00;;;-0.11;75.14
44027;BME280;29696;55.698;37.460;2022-12-29T12:57:58;99497.53;;;-0.19;74.60
44027;BME280;29696;55.698;37.460;2022-12-29T13:00:32;99500.50;;;-0.27;74.85
44027;BME280;29696;55.698;37.460;2022-12-29T13:03:17;99503.38;;;-0.33;74.90
44027;BME280;29696;55.698;37.460;2022-12-29T13:05:50;99501.91;;;-0.38;74.83
44027;BME280;29696;55.698;37.460;2022-12-29T13:11:17;99506.63;;;-0.48;74.80
44027;BME280;29696;55.698;37.460;2022-12-29T13:13:52;99505.88;;;-0.50;75.12
44027;BME280;29696;55.698;37.460;2022-12-29T13:19:24;99501.44;;;-0.48;75.27
44027;BME280;29696;55.698;37.460;2022-12-29T13:21:58;99511.50;;;-0.40;75.55
44027;BME280;29696;55.698;37.460;2022-12-29T13:30:15;99514.69;;;-0.15;76.35
44027;BME280;29696;55.698;37.460;2022-12-29T13:41:21;99500.97;;;-0.18;76.73
44027;BME280;29696;55.698;37.460;2022-12-29T13:43:49;99500.22;;;-0.20;76.72
44027;BME280;29696;55.698;37.460;2022-12-29T13:46:24;99498.66;;;-0.25;76.71
44027;BME280;29696;55.698;37.460;2022-12-29T13:48:52;99499.72;;;-0.29;76.63
44027;BME280;29696;55.698;37.460;2022-12-29T13:51:20;99498.03;;;-0.30;76.87
44027;BME280;29696;55.698;37.460;2022-12-29T13:56:49;99497.03;;;-0.27;77.05
44027;BME280;29696;55.698;37.460;2022-12-29T14:04:55;99500.34;;;-0.05;77.29
44027;BME280;29696;55.698;37.460;2022-12-29T14:07:22;99499.38;;;-0.02;77.56
44027;BME280;29696;55.698;37.460;2022-12-29T14:09:51;99498.59;;;-0.04;77.49
44027;BME280;29696;55.698;37.460;2022-12-29T14:18:10;99503.38;;;-0.14;77.63
44027;BME280;29696;55.698;37.460;2022-12-29T14:20:37;99507.50;;;-0.10;77.73
44027;BME280;29696;55.698;37.460;2022-12-29T14:28:47;99498.31;;;0.02;78.21
44027;BME280;29696;55.698;37.460;2022-12-29T14:39:43;99511.16;;;0.05;78.19
44027;BME280;29696;55.698;37.460;2022-12-29T14:44:58;99509.50;;;0.04;78.39
44027;BME280;29696;55.698;37.460;2022-12-29T14:47:38;99506.66;;;0.09;78.48
44027;BME280;29696;55.698;37.460;2022-12-29T14:56:27;99505.25;;;0.20;78.68
44027;BME280;29696;55.698;37.460;2022-12-29T14:58:58;99511.50;;;0.16;78.71
44027;BME280;29696;55.698;37.460;2022-12-29T15:04:23;99510.66;;;-0.03;78.24
44027;BME280;29696;55.698;37.460;2022-12-29T15:06:52;99505.69;;;-0.08;78.45
44027;BME280;29696;55.698;37.460;2022-12-29T15:09:27;99510.19;;;-0.11;78.37
44027;BME280;29696;55.698;37.460;2022-12-29T15:12:04;99518.25;;;-0.17;78.57
44027;BME280;29696;55.698;37.460;2022-12-29T15:14:38;99509.84;;;-0.22;78.76
44027;BME280;29696;55.698;37.460;2022-12-29T15:17:09;99513.25;;;-0.22;78.81
44027;BME280;29696;55.698;37.460;2022-12-29T15:19:36;99515.81;;;-0.20;78.97
44027;BME280;29696;55.698;37.460;2022-12-29T15:22:02;99514.88;;;-0.19;78.91
44027;BME280;29696;55.698;37.460;2022-12-29T15:24:28;99514.94;;;-0.21;79.06
44027;BME280;29696;55.698;37.460;2022-12-29T15:26:54;99509.13;;;-0.26;79.17
44027;BME280;29696;55.698;37.460;2022-12-29T15:29:30;99511.88;;;-0.29;79.32
44027;BME280;29696;55.698;37.460;2022-12-29T15:32:00;99504.41;;;-0.37;79.58
44027;BME280;29696;55.698;37.460;2022-12-29T15:34:29;99499.44;;;-0.41;79.39
44027;BME280;29696;55.698;37.460;2022-12-29T15:36:55;99507.28;;;-0.43;79.57